createdAt,value
2019-04-11T00:01:12.135Z,100397.64
2019-04-11T00:03:44.130Z,100401.26
2019-04-11T00:06:15.666Z,100405.00
2019-04-11T00:08:47.419Z,100408.46
2019-04-11T00:11:21.902Z,100419.47
2019-04-11T00:13:55.692Z,100420.80
2019-04-11T00:16:27.262Z,100420.14
2019-04-11T00:18:59.062Z,100416.84
2019-04-11T00:21:31.166Z,100432.31
2019-04-11T00:24:02.875Z,100439.42
2019-04-11T00:26:34.637Z,100442.02
2019-04-11T00:29:06.258Z,100456.41
2019-04-11T00:31:38.965Z,100450.06
2019-04-11T00:34:11.495Z,100450.59
2019-04-11T00:36:44.271Z,100440.50
2019-04-11T00:39:16.247Z,100448.34
2019-04-11T00:41:48.256Z,100442.22
2019-04-11T00:44:20.919Z,100442.15
2019-04-11T00:46:53.584Z,100444.44
2019-04-11T00:49:26.143Z,100434.46
2019-04-11T00:51:58.291Z,100433.38
2019-04-11T00:54:30.980Z,100430.08
2019-04-11T00:57:05.075Z,100429.77
2019-04-11T00:59:36.743Z,100434.23
2019-04-11T01:02:09.465Z,100438.32
2019-04-11T01:04:43.198Z,100438.02
2019-04-11T01:07:15.082Z,100452.56
2019-04-11T01:09:46.436Z,100455.52
2019-04-11T01:12:18.673Z,100447.42
2019-04-11T01:14:51.206Z,100450.94
2019-04-11T01:17:23.315Z,100447.42
2019-04-11T01:19:55.258Z,100441.47
2019-04-11T01:22:27.256Z,100437.16
2019-04-11T01:24:59.908Z,100432.69
2019-04-11T01:27:32.074Z,100426.33
2019-04-11T01:30:08.781Z,100431.98
2019-04-11T01:32:42.279Z,100439.73
2019-04-11T01:35:15.159Z,100431.32
2019-04-11T01:37:48.090Z,100432.56
2019-04-11T01:40:19.694Z,100425.67
2019-04-11T01:42:51.512Z,100418.69
2019-04-11T01:45:25.353Z,100414.78
2019-04-11T01:47:59.447Z,100417.88
2019-04-11T01:50:32.903Z,100418.12
2019-04-11T01:53:04.643Z,100414.83
2019-04-11T01:55:36.765Z,100418.27
2019-04-11T01:58:10.870Z,100404.95
2019-04-11T02:00:50.907Z,100413.03
2019-04-11T02:03:39.422Z,100420.16
2019-04-11T02:06:11.843Z,100417.78
2019-04-11T02:08:43.855Z,100423.73
2019-04-11T02:11:15.512Z,100429.00
2019-04-11T02:13:48.097Z,100433.75
2019-04-11T02:16:20.952Z,100442.35
2019-04-11T02:18:53.966Z,100454.05
2019-04-11T02:21:27.380Z,100454.29
2019-04-11T02:24:17.423Z,100459.62
2019-04-11T02:27:03.078Z,100462.46
2019-04-11T02:29:35.441Z,100473.92
2019-04-11T02:32:07.566Z,100468.27
2019-04-11T02:34:39.732Z,100464.32
2019-04-11T02:37:13.359Z,100465.89
2019-04-11T02:39:47.117Z,100472.02
2019-04-11T02:42:18.997Z,100464.56
2019-04-11T02:45:03.457Z,100463.23
2019-04-11T02:47:30.713Z,100464.94
2019-04-11T02:49:59.145Z,100468.73
2019-04-11T02:52:31.265Z,100476.44
2019-04-11T02:55:05.677Z,100473.39
2019-04-11T02:57:38.526Z,100475.77
2019-04-11T03:00:13.075Z,100477.28
2019-04-11T03:02:45.299Z,100469.58
2019-04-11T03:05:18.407Z,100479.28
2019-04-11T03:07:50.428Z,100469.58
2019-04-11T03:10:22.863Z,100475.15
2019-04-11T03:12:56.786Z,100477.34
2019-04-11T03:15:43.191Z,100481.80
2019-04-11T03:18:08.307Z,100486.17
2019-04-11T03:20:47.288Z,100485.88
2019-04-11T03:23:14.555Z,100490.98
2019-04-11T03:25:46.864Z,100496.69
2019-04-11T03:28:23.007Z,100512.18
2019-04-11T03:31:13.171Z,100516.98
2019-04-11T03:34:12.731Z,100511.32
2019-04-11T03:36:50.688Z,100504.95
2019-04-11T03:38:56.983Z,100514.02
2019-04-11T03:41:25.335Z,100520.92
2019-04-11T03:43:51.086Z,100525.85
2019-04-11T03:46:34.018Z,100519.20
2019-04-11T03:49:00.226Z,100503.23
2019-04-11T03:51:22.778Z,100509.30
2019-04-11T03:53:54.770Z,100506.14
2019-04-11T03:56:28.658Z,100506.84
2019-04-11T03:59:01.433Z,100509.22
2019-04-11T04:01:34.947Z,100514.45
2019-04-11T04:04:13.063Z,100501.87
2019-04-11T04:06:47.700Z,100499.95
2019-04-11T04:09:20.852Z,100500.38
2019-04-11T04:11:54.564Z,100500.88
2019-04-11T04:14:32.567Z,100499.27
2019-04-11T04:17:10.447Z,100501.73
2019-04-11T04:19:54.316Z,100507.11
2019-04-11T04:22:31.600Z,100510.49
2019-04-11T04:25:04.701Z,100497.75
2019-04-11T04:27:38.628Z,100497.22
2019-04-11T04:30:10.919Z,100498.64
2019-04-11T04:32:47.262Z,100491.04
2019-04-11T04:35:21.512Z,100497.22
2019-04-11T04:37:52.464Z,100495.23
2019-04-11T04:40:42.444Z,100490.56
2019-04-11T04:43:02.938Z,100503.45
2019-04-11T04:45:55.177Z,100509.63
2019-04-11T04:48:11.565Z,100515.24
2019-04-11T04:50:42.097Z,100519.52
2019-04-11T04:53:15.851Z,100515.91
2019-04-11T04:55:47.835Z,100513.53
2019-04-11T04:58:21.899Z,100524.23
2019-04-11T05:00:54.371Z,100520.91
2019-04-11T05:03:29.807Z,100513.48
2019-04-11T05:06:03.837Z,100519.05
2019-04-11T05:08:35.370Z,100525.08
2019-04-11T05:11:07.612Z,100526.41
2019-04-11T05:13:41.286Z,100522.38
2019-04-11T05:16:17.234Z,100528.62
2019-04-11T05:18:46.138Z,100536.60
2019-04-11T05:21:18.964Z,100533.27
2019-04-11T05:23:50.742Z,100536.08
2019-04-11T05:26:23.620Z,100532.42
2019-04-11T05:28:55.638Z,100534.17
2019-04-11T05:31:27.605Z,100534.35
2019-04-11T05:33:59.434Z,100539.13
2019-04-11T05:36:32.145Z,100544.48
2019-04-11T05:39:06.814Z,100558.22
2019-04-11T05:41:42.044Z,100562.20
2019-04-11T05:44:13.154Z,100560.64
2019-04-11T05:46:53.222Z,100562.22
2019-04-11T05:49:21.671Z,100558.98
2019-04-11T05:52:00.458Z,100555.05
2019-04-11T05:54:41.847Z,100558.19
2019-04-11T05:57:20.839Z,100553.97
2019-04-11T05:59:53.430Z,100555.44
2019-04-11T06:02:29.030Z,100556.70
2019-04-11T06:05:09.017Z,100554.17
2019-04-11T06:07:57.262Z,100549.58
2019-04-11T06:10:30.305Z,100551.50
2019-04-11T06:13:18.951Z,100556.83
2019-04-11T06:16:03.096Z,100553.58
2019-04-11T06:18:52.849Z,100562.72
2019-04-11T06:21:26.223Z,100558.59
2019-04-11T06:24:18.218Z,100558.20
2019-04-11T06:27:08.857Z,100572.56
2019-04-11T06:30:01.204Z,100572.56
2019-04-11T06:32:52.089Z,100577.58
2019-04-11T06:35:35.793Z,100573.14
2019-04-11T06:38:26.735Z,100578.55
2019-04-11T06:41:16.711Z,100576.44
2019-04-11T06:43:50.097Z,100582.13
2019-04-11T06:46:31.318Z,100577.61
2019-04-11T06:49:18.267Z,100575.05
2019-04-11T06:51:53.415Z,100574.67
2019-04-11T06:54:32.855Z,100572.91
2019-04-11T06:57:07.580Z,100572.55
2019-04-11T06:59:48.324Z,100576.38
2019-04-11T07:02:24.076Z,100573.97
2019-04-11T07:05:00.317Z,100580.80
2019-04-11T07:07:35.664Z,100575.90
2019-04-11T07:10:07.360Z,100580.30
2019-04-11T07:12:40.801Z,100574.45
2019-04-11T07:15:18.727Z,100580.05
2019-04-11T07:18:08.280Z,100580.20
2019-04-11T07:20:54.199Z,100581.77
2019-04-11T07:23:44.703Z,100587.58
2019-04-11T07:26:27.548Z,100583.15
2019-04-11T07:29:17.379Z,100574.10
2019-04-11T07:31:57.068Z,100579.86
2019-04-11T07:34:47.802Z,100585.11
2019-04-11T07:37:33.298Z,100582.31
2019-04-11T07:40:17.757Z,100580.46
2019-04-11T07:43:03.763Z,100575.30
2019-04-11T07:45:38.585Z,100588.04
2019-04-11T07:48:15.128Z,100586.00
2019-04-11T07:50:46.852Z,100587.27
2019-04-11T07:53:21.719Z,100587.09
2019-04-11T07:55:53.700Z,100587.09
2019-04-11T07:58:26.924Z,100591.70
2019-04-11T08:01:10.288Z,100590.37
2019-04-11T08:04:02.040Z,100581.20
2019-04-11T08:06:35.273Z,100577.72
2019-04-11T08:09:27.309Z,100579.47
2019-04-11T08:12:04.489Z,100573.24
2019-04-11T08:14:55.089Z,100569.23
2019-04-11T08:17:36.801Z,100573.21
2019-04-11T08:20:21.368Z,100578.23
2019-04-11T08:22:57.833Z,100573.36
2019-04-11T08:25:31.447Z,100563.02
2019-04-11T08:28:07.839Z,100577.30
2019-04-11T08:30:50.943Z,100574.09
2019-04-11T08:33:24.645Z,100568.19
2019-04-11T08:36:07.367Z,100570.10
2019-04-11T08:38:42.653Z,100572.50
2019-04-11T08:41:27.564Z,100572.08
2019-04-11T08:43:59.462Z,100579.77
2019-04-11T08:46:33.562Z,100573.59
2019-04-11T08:49:09.900Z,100579.52
2019-04-11T08:51:43.787Z,100580.59
2019-04-11T08:54:33.573Z,100571.50
2019-04-11T08:57:10.053Z,100571.30
2019-04-11T08:59:49.732Z,100571.19
2019-04-11T09:02:24.775Z,100578.23
2019-04-11T09:05:07.030Z,100559.53
2019-04-11T09:07:49.891Z,100559.45
2019-04-11T09:10:44.280Z,100556.19
2019-04-11T09:13:37.757Z,100558.52
2019-04-11T09:16:23.614Z,100557.72
2019-04-11T09:18:59.364Z,100556.58
2019-04-11T09:21:48.678Z,100565.25
2019-04-11T09:24:40.886Z,100554.81
2019-04-11T09:27:33.919Z,100544.45
2019-04-11T09:30:12.877Z,100543.21
2019-04-11T09:33:02.863Z,100544.13
2019-04-11T09:35:52.578Z,100545.91
2019-04-11T09:38:26.953Z,100544.17
2019-04-11T09:41:00.515Z,100532.52
2019-04-11T09:43:34.083Z,100537.20
2019-04-11T09:46:08.205Z,100527.02
2019-04-11T09:48:58.104Z,100523.86
2019-04-11T09:51:40.467Z,100528.28
2019-04-11T09:54:17.598Z,100525.44
2019-04-11T09:57:10.304Z,100522.28
2019-04-11T10:00:01.851Z,100521.40
2019-04-11T10:02:56.313Z,100520.64
2019-04-11T10:05:34.165Z,100519.81
2019-04-11T10:08:13.097Z,100520.83
2019-04-11T10:10:53.266Z,100515.22
2019-04-11T10:13:37.273Z,100514.64
2019-04-11T10:16:24.158Z,100508.09
2019-04-11T10:19:11.938Z,100521.40
2019-04-11T10:22:13.384Z,100527.96
2019-04-11T10:25:05.236Z,100523.01
2019-04-11T10:27:38.709Z,100518.08
2019-04-11T10:30:29.293Z,100517.64
2019-04-11T10:33:06.822Z,100515.22
2019-04-11T10:35:43.472Z,100507.17
2019-04-11T10:38:31.156Z,100509.16
2019-04-11T10:41:21.117Z,100515.23
2019-04-11T10:43:53.807Z,100504.70
2019-04-11T10:46:43.918Z,100499.90
2019-04-11T10:49:30.400Z,100508.94
2019-04-11T10:52:04.477Z,100508.03
2019-04-11T10:54:36.731Z,100513.25
2019-04-11T10:57:11.914Z,100511.36
2019-04-11T10:59:47.081Z,100504.34
2019-04-11T11:02:27.956Z,100511.92
2019-04-11T11:04:59.620Z,100502.38
2019-04-11T11:07:33.006Z,100504.42
2019-04-11T11:10:09.297Z,100510.66
2019-04-11T11:12:45.540Z,100504.98
2019-04-11T11:15:25.329Z,100500.81
2019-04-11T11:18:35.118Z,100495.72
2019-04-11T11:20:48.288Z,100491.69
2019-04-11T11:23:33.073Z,100491.55
2019-04-11T11:26:09.006Z,100490.27
2019-04-11T11:28:43.197Z,100486.96
2019-04-11T11:31:22.448Z,100487.74
2019-04-11T11:33:57.054Z,100491.44
2019-04-11T11:36:53.541Z,100487.30
2019-04-11T11:39:28.928Z,100487.56
2019-04-11T11:42:18.366Z,100475.70
2019-04-11T11:44:55.302Z,100476.78
2019-04-11T11:47:46.575Z,100480.91
2019-04-11T11:50:26.650Z,100475.58
2019-04-11T11:53:16.493Z,100484.39
2019-04-11T11:55:51.990Z,100474.50
2019-04-11T11:58:28.259Z,100475.77
2019-04-11T12:01:05.829Z,100472.55
2019-04-11T12:03:55.388Z,100472.32
2019-04-11T12:06:29.289Z,100475.75
2019-04-11T12:09:18.854Z,100467.48
2019-04-11T12:11:54.348Z,100474.02
2019-04-11T12:14:43.394Z,100468.82
2019-04-11T12:17:19.088Z,100478.73
2019-04-11T12:20:06.387Z,100475.58
2019-04-11T12:22:34.943Z,100465.80
2019-04-11T12:25:19.053Z,100472.04
2019-04-11T12:27:56.327Z,100464.02
2019-04-11T12:30:39.845Z,100473.16
2019-04-11T12:33:17.221Z,100464.02
2019-04-11T12:35:50.788Z,100465.38
2019-04-11T12:38:24.676Z,100464.21
2019-04-11T12:41:10.292Z,100464.84
2019-04-11T12:43:59.204Z,100466.33
2019-04-11T12:46:48.674Z,100467.67
2019-04-11T12:49:25.007Z,100475.72
2019-04-11T12:52:13.287Z,100471.69
2019-04-11T12:54:46.430Z,100470.59
2019-04-11T12:57:39.666Z,100467.52
2019-04-11T13:00:20.602Z,100462.69
2019-04-11T13:03:05.786Z,100472.55
2019-04-11T13:05:40.456Z,100467.01
2019-04-11T13:08:13.548Z,100467.02
2019-04-11T13:10:46.904Z,100465.59
2019-04-11T13:13:36.705Z,100465.37
2019-04-11T13:16:12.409Z,100462.77
2019-04-11T13:18:50.841Z,100467.30
2019-04-11T13:21:24.276Z,100466.14
2019-04-11T13:24:01.856Z,100469.41
2019-04-11T13:26:52.332Z,100461.26
2019-04-11T13:29:31.762Z,100462.38
2019-04-11T13:32:04.948Z,100463.41
2019-04-11T13:34:38.106Z,100466.33
2019-04-11T13:37:27.503Z,100456.90
2019-04-11T13:40:05.988Z,100462.38
2019-04-11T13:42:55.281Z,100460.84
2019-04-11T13:45:34.353Z,100456.70
2019-04-11T13:48:27.174Z,100461.26
2019-04-11T13:51:00.567Z,100455.00
2019-04-11T13:53:43.102Z,100455.25
2019-04-11T13:56:14.760Z,100454.02
2019-04-11T13:59:04.308Z,100450.56
2019-04-11T14:01:37.692Z,100451.68
2019-04-11T14:04:20.618Z,100442.36
2019-04-11T14:06:52.705Z,100438.98
2019-04-11T14:09:32.216Z,100443.84
2019-04-11T14:12:06.930Z,100436.03
2019-04-11T14:14:40.429Z,100444.44
2019-04-11T14:17:13.531Z,100436.36
2019-04-11T14:19:52.628Z,100432.06
2019-04-11T14:22:29.067Z,100426.53
2019-04-11T14:25:19.403Z,100429.80
2019-04-11T14:27:54.041Z,100423.25
2019-04-11T14:30:37.268Z,100406.83
2019-04-11T14:33:08.969Z,100417.59
2019-04-11T14:36:00.517Z,100419.81
2019-04-11T14:38:33.378Z,100414.16
2019-04-11T14:41:16.270Z,100406.33
2019-04-11T14:43:56.052Z,100403.88
2019-04-11T14:46:47.797Z,100411.67
2019-04-11T14:49:19.447Z,100418.83
2019-04-11T14:52:04.789Z,100404.73
2019-04-11T14:54:51.375Z,100406.17
2019-04-11T14:57:38.395Z,100404.11
2019-04-11T15:00:15.003Z,100404.11
2019-04-11T15:02:48.768Z,100401.91
2019-04-11T15:05:25.654Z,100402.14
2019-04-11T15:08:02.539Z,100405.79
2019-04-11T15:10:53.285Z,100405.82
2019-04-11T15:13:26.542Z,100402.14
2019-04-11T15:16:27.035Z,100406.56
2019-04-11T15:18:59.999Z,100407.50
2019-04-11T15:21:36.958Z,100399.45
2019-04-11T15:24:09.869Z,100402.22
2019-04-11T15:26:44.131Z,100401.47
2019-04-11T15:29:18.675Z,100402.51
2019-04-11T15:32:02.181Z,100399.06
2019-04-11T15:34:35.497Z,100396.56
2019-04-11T15:37:25.841Z,100397.59
2019-04-11T15:40:08.781Z,100393.40
2019-04-11T15:42:50.087Z,100399.63
2019-04-11T15:45:29.562Z,100400.59
2019-04-11T15:48:23.591Z,100394.68
2019-04-11T15:51:12.111Z,100397.59
2019-04-11T15:53:48.117Z,100404.86
2019-04-11T15:56:41.745Z,100400.56
2019-04-11T15:59:14.674Z,100402.38
2019-04-11T16:02:04.315Z,100404.89
2019-04-11T16:04:37.640Z,100403.13
2019-04-11T16:07:17.692Z,100408.06
2019-04-11T16:09:57.688Z,100407.15
2019-04-11T16:12:44.402Z,100408.09
2019-04-11T16:15:18.237Z,100407.47
2019-04-11T16:18:08.118Z,100412.32
2019-04-11T16:20:41.281Z,100419.12
2019-04-11T16:23:18.707Z,100411.50
2019-04-11T16:25:55.161Z,100412.11
2019-04-11T16:28:46.808Z,100411.83
2019-04-11T16:31:26.242Z,100426.47
2019-04-11T16:34:16.122Z,100426.38
2019-04-11T16:36:52.375Z,100429.34
2019-04-11T16:39:33.009Z,100429.50
2019-04-11T16:42:11.969Z,100436.18
2019-04-11T16:44:58.867Z,100443.56
2019-04-11T16:47:47.753Z,100442.88
2019-04-11T16:50:27.021Z,100450.03
2019-04-11T16:53:00.410Z,100455.89
2019-04-11T16:55:50.166Z,100462.23
2019-04-11T16:58:19.670Z,100462.35
2019-04-11T17:00:53.156Z,100473.39
2019-04-11T17:03:26.040Z,100471.31
2019-04-11T17:05:59.574Z,100474.58
2019-04-11T17:08:35.559Z,100479.34
2019-04-11T17:11:10.544Z,100481.77
2019-04-11T17:13:42.452Z,100487.25
2019-04-11T17:16:15.143Z,100490.85
2019-04-11T17:18:46.860Z,100497.22
2019-04-11T17:21:18.588Z,100497.59
2019-04-11T17:23:50.331Z,100495.17
2019-04-11T17:26:23.180Z,100500.27
2019-04-11T17:28:56.742Z,100497.10
2019-04-11T17:31:28.512Z,100499.90
2019-04-11T17:34:01.833Z,100510.42
2019-04-11T17:36:34.580Z,100506.14
2019-04-11T17:39:07.826Z,100508.02
2019-04-11T17:41:42.113Z,100511.97
2019-04-11T17:44:13.128Z,100515.05
2019-04-11T17:46:45.043Z,100513.25
2019-04-11T17:49:16.870Z,100517.16
2019-04-11T17:51:55.876Z,100517.84
2019-04-11T17:54:24.745Z,100513.90
2019-04-11T17:56:58.733Z,100515.92
2019-04-11T17:59:29.196Z,100513.45
2019-04-11T18:02:01.973Z,100511.62
2019-04-11T18:04:33.715Z,100514.52
2019-04-11T18:07:05.373Z,100514.20
2019-04-11T18:09:38.014Z,100511.15
2019-04-11T18:12:09.689Z,100516.52
2019-04-11T18:14:41.227Z,100512.88
2019-04-11T18:17:12.834Z,100514.20
2019-04-11T18:19:44.609Z,100511.53
2019-04-11T18:22:16.160Z,100515.85
2019-04-11T18:24:50.068Z,100514.13
2019-04-11T18:27:22.495Z,100522.42
2019-04-11T18:29:54.065Z,100522.91
2019-04-11T18:32:25.607Z,100519.27
2019-04-11T18:34:57.178Z,100518.33
2019-04-11T18:37:29.777Z,100517.84
2019-04-11T18:40:06.375Z,100519.97
2019-04-11T18:42:35.414Z,100516.80
2019-04-11T18:45:08.909Z,100523.20
2019-04-11T18:47:41.464Z,100523.58
2019-04-11T18:50:14.823Z,100518.21
2019-04-11T18:52:46.576Z,100522.77
2019-04-11T18:55:20.024Z,100522.40
2019-04-11T18:57:51.610Z,100520.06
2019-04-11T19:00:24.131Z,100517.21
2019-04-11T19:02:56.684Z,100528.02
2019-04-11T19:05:29.356Z,100524.39
2019-04-11T19:08:01.148Z,100521.50
2019-04-11T19:10:32.864Z,100520.30
2019-04-11T19:13:04.505Z,100520.64
2019-04-11T19:15:36.264Z,100520.34
2019-04-11T19:18:07.871Z,100515.31
2019-04-11T19:20:39.499Z,100514.72
2019-04-11T19:23:11.187Z,100524.72
2019-04-11T19:25:45.113Z,100514.97
2019-04-11T19:28:17.258Z,100514.27
2019-04-11T19:30:48.947Z,100519.70
2019-04-11T19:33:20.607Z,100509.18
2019-04-11T19:35:52.244Z,100515.48
2019-04-11T19:38:25.579Z,100511.42
2019-04-11T19:40:57.266Z,100510.88
2019-04-11T19:43:28.819Z,100504.89
2019-04-11T19:46:01.671Z,100508.63
2019-04-11T19:48:33.219Z,100516.79
2019-04-11T19:51:04.752Z,100509.90
2019-04-11T19:53:37.525Z,100501.53
2019-04-11T19:56:19.894Z,100509.48
2019-04-11T19:58:51.498Z,100506.38
2019-04-11T20:01:23.632Z,100500.31
2019-04-11T20:03:55.220Z,100504.89
2019-04-11T20:06:26.721Z,100505.75
2019-04-11T20:08:58.344Z,100497.68
2019-04-11T20:11:32.120Z,100499.97
2019-04-11T20:14:04.929Z,100499.81
2019-04-11T20:16:42.061Z,100499.50
2019-04-11T20:19:09.933Z,100497.72
2019-04-11T20:21:42.432Z,100490.98
2019-04-11T20:24:14.977Z,100497.74
2019-04-11T20:26:49.736Z,100496.41
2019-04-11T20:29:21.443Z,100502.70
2019-04-11T20:31:54.370Z,100494.59
2019-04-11T20:34:27.732Z,100494.29
2019-04-11T20:36:59.233Z,100490.86
2019-04-11T20:39:30.760Z,100491.78
2019-04-11T20:42:02.288Z,100489.53
2019-04-11T20:44:33.962Z,100487.63
2019-04-11T20:47:05.619Z,100489.60
2019-04-11T20:49:38.774Z,100488.73
2019-04-11T20:52:11.329Z,100491.59
2019-04-11T20:54:45.216Z,100491.05
2019-04-11T20:57:25.119Z,100485.74
2019-04-11T20:59:49.895Z,100489.45
2019-04-11T21:02:21.552Z,100491.27
2019-04-11T21:04:53.072Z,100486.18
2019-04-11T21:07:25.580Z,100490.94
2019-04-11T21:09:57.182Z,100492.56
2019-04-11T21:12:28.702Z,100493.66
2019-04-11T21:15:00.224Z,100495.55
2019-04-11T21:17:31.759Z,100492.19
2019-04-11T21:20:05.368Z,100493.47
2019-04-11T21:22:36.939Z,100483.05
2019-04-11T21:25:11.063Z,100487.95
2019-04-11T21:27:42.635Z,100481.91
2019-04-11T21:30:14.521Z,100481.44
2019-04-11T21:32:46.238Z,100485.81
2019-04-11T21:35:17.780Z,100490.23
2019-04-11T21:37:49.359Z,100488.09
2019-04-11T21:40:21.014Z,100483.00
2019-04-11T21:42:52.643Z,100493.56
2019-04-11T21:45:24.263Z,100497.55
2019-04-11T21:47:56.161Z,100501.94
2019-04-11T21:50:28.234Z,100506.82
2019-04-11T21:52:59.784Z,100500.06
2019-04-11T21:55:31.455Z,100501.09
2019-04-11T21:58:03.122Z,100497.63
2019-04-11T22:00:41.636Z,100503.95
2019-04-11T22:03:14.897Z,100506.14
2019-04-11T22:05:46.776Z,100505.37
2019-04-11T22:08:18.389Z,100504.98
2019-04-11T22:10:50.147Z,100494.78
2019-04-11T22:13:21.900Z,100504.85
2019-04-11T22:15:54.798Z,100498.08
2019-04-11T22:18:26.986Z,100511.70
2019-04-11T22:20:58.558Z,100512.77
2019-04-11T22:23:30.133Z,100513.84
2019-04-11T22:26:01.786Z,100512.64
2019-04-11T22:28:33.647Z,100512.90
2019-04-11T22:31:05.397Z,100513.76
2019-04-11T22:33:42.036Z,100512.25
2019-04-11T22:36:13.549Z,100514.78
2019-04-11T22:38:45.099Z,100513.03
2019-04-11T22:41:16.825Z,100511.18
2019-04-11T22:43:48.380Z,100511.87
2019-04-11T22:46:21.198Z,100514.06
2019-04-11T22:48:55.036Z,100509.85
2019-04-11T22:51:26.612Z,100505.91
2019-04-11T22:54:00.489Z,100511.39
2019-04-11T22:56:31.672Z,100514.91
2019-04-11T22:59:03.351Z,100514.35
2019-04-11T23:01:35.053Z,100525.32
2019-04-11T23:04:07.022Z,100522.74
2019-04-11T23:06:38.606Z,100523.48
2019-04-11T23:09:11.169Z,100524.80
2019-04-11T23:11:45.261Z,100524.38
2019-04-11T23:14:16.568Z,100525.79
2019-04-11T23:16:48.244Z,100524.66
2019-04-11T23:19:19.718Z,100525.18
2019-04-11T23:21:51.145Z,100519.48
2019-04-11T23:24:22.751Z,100516.85
2019-04-11T23:26:54.268Z,100515.52
2019-04-11T23:29:25.833Z,100514.05
2019-04-11T23:31:57.355Z,100520.90
2019-04-11T23:34:28.907Z,100521.81
2019-04-11T23:37:01.485Z,100525.33
2019-04-11T23:39:32.996Z,100523.80
2019-04-11T23:42:04.523Z,100524.66
2019-04-11T23:44:36.254Z,100531.08
2019-04-11T23:47:07.806Z,100525.73
2019-04-11T23:49:41.359Z,100524.65
2019-04-11T23:52:13.114Z,100526.88
2019-04-11T23:54:44.951Z,100526.10
2019-04-11T23:57:16.708Z,100529.20
2019-04-11T23:59:48.364Z,100532.80
